This is the latest recevied weather packets stored in our database for station/object DM0MR. If no packets are shown the sender has not sent any weather packets the latest 10 day(s).
| Time | Temp. | Humidity | Pressure | Rain* | Wind** | Luminosity | Snow |
|---|---|---|---|---|---|---|---|
| 1787994495 | 25.56° C | 55% | 1012.2 hPa | 0 mm | - | - | - |
| 1787993595 | 25.56° C | 57% | 1012.3 hPa | 0 mm | - | - | - |
| 1787990895 | 23.89° C | 60% | 1012.3 hPa | 0 mm | - | - | - |
| 1787989994 | 23.33° C | 66% | 1012.1 hPa | 0 mm | - | - | - |
| 1787988195 | 21.11° C | 72% | 1012 hPa | 0 mm | - | - | - |
| 1787987294 | 20.56° C | 75% | 1012 hPa | 0 mm | - | - | - |
| 1787986396 | 19.44° C | 77% | 1012 hPa | 0 mm | - | - | - |
| 1787983695 | 15.56° C | 97% | 1011.6 hPa | 0 mm | - | - | - |
| 1787982794 | 13.89° C | 98% | 1011.6 hPa | 0 mm | - | - | - |
| 1787981895 | 13.33° C | 98% | 1011.6 hPa | 0 mm | - | - | - |
| 1787980995 | 12.78° C | 98% | 1011.4 hPa | 0 mm | - | - | - |
| 1787980097 | 12.78° C | 98% | 1011.2 hPa | 0 mm | - | - | - |
| 1787979195 | 12.78° C | 98% | 1011.1 hPa | 0 mm | - | - | - |
| 1787977395 | 13.33° C | 98% | 1011.1 hPa | 0 mm | - | - | - |
| 1787975595 | 13.89° C | 98% | 1011.1 hPa | 0 mm | - | - | - |
| 1787974693 | 13.89° C | 98% | 1011.1 hPa | 0 mm | - | - | - |
| 1787972894 | 13.89° C | 98% | 1010.9 hPa | 0 mm | - | - | - |
| 1787970194 | 14.44° C | 98% | 1010.9 hPa | 0 mm | - | - | - |
| 1787968394 | 14.44° C | 99% | 1010.8 hPa | 0 mm | - | - | - |
| 1787966594 | 14.44° C | 99% | 1010.5 hPa | 0 mm | - | - | - |
| 1787965695 | 15° C | 98% | 1010.4 hPa | 0 mm | - | - | - |
| 1787964795 | 15° C | 98% | 1010.8 hPa | 0 mm | - | - | - |
| 1787962993 | 15.56° C | 98% | 1010.7 hPa | 0 mm | - | - | - |
| 1787957596 | 16.11° C | 97% | 1010.1 hPa | 0 mm | - | - | - |
| 1787955794 | 16.11° C | 97% | 1009.8 hPa | 0 mm | - | - | - |
* Rain latest hour (hover to see other rain measurements)
** Current wind speed in m/s (hover to see current wind gust speed)